sensor_id;sensor_type;location;lat;lon;timestamp;pressure;altitude;pressure_sealevel;temperature;humidity
77897;BME280;67092;64.282;21.056;2023-04-16T00:00:24;102820.31;;;21.22;21.04
77897;BME280;67092;64.282;21.056;2023-04-16T00:02:48;102815.61;;;21.47;21.02
77897;BME280;67092;64.282;21.056;2023-04-16T00:05:14;102819.95;;;22.08;20.83
77897;BME280;67092;64.282;21.056;2023-04-16T00:07:39;102822.24;;;21.83;20.82
77897;BME280;67092;64.282;21.056;2023-04-16T00:10:06;102821.57;;;21.53;21.06
77897;BME280;67092;64.282;21.056;2023-04-16T00:12:31;102814.44;;;21.46;21.13
77897;BME280;67092;64.282;21.056;2023-04-16T00:14:56;102814.26;;;21.57;21.09
77897;BME280;67092;64.282;21.056;2023-04-16T00:17:22;102813.50;;;21.60;21.06
77897;BME280;67092;64.282;21.056;2023-04-16T00:19:47;102811.75;;;21.48;21.16
77897;BME280;67092;64.282;21.056;2023-04-16T00:22:13;102811.72;;;21.44;20.97
77897;BME280;67092;64.282;21.056;2023-04-16T00:24:39;102813.58;;;21.02;21.29
77897;BME280;67092;64.282;21.056;2023-04-16T00:27:05;102813.55;;;21.30;21.03
77897;BME280;67092;64.282;21.056;2023-04-16T00:29:30;102812.95;;;21.38;21.17
77897;BME280;67092;64.282;21.056;2023-04-16T00:31:56;102818.12;;;21.73;20.96
77897;BME280;67092;64.282;21.056;2023-04-16T00:34:21;102813.94;;;21.27;21.27
77897;BME280;67092;64.282;21.056;2023-04-16T00:36:47;102811.16;;;21.28;21.32
77897;BME280;67092;64.282;21.056;2023-04-16T00:39:18;102810.15;;;21.34;21.23
77897;BME280;67092;64.282;21.056;2023-04-16T00:41:38;102809.27;;;21.19;21.39
77897;BME280;67092;64.282;21.056;2023-04-16T00:44:04;102808.23;;;21.15;21.40
77897;BME280;67092;64.282;21.056;2023-04-16T00:46:29;102806.93;;;21.33;21.18
77897;BME280;67092;64.282;21.056;2023-04-16T00:49:00;102804.61;;;21.12;21.15
77897;BME280;67092;64.282;21.056;2023-04-16T00:51:21;102802.53;;;21.53;21.10
77897;BME280;67092;64.282;21.056;2023-04-16T00:53:46;102800.56;;;21.38;21.35
77897;BME280;67092;64.282;21.056;2023-04-16T00:56:12;102805.20;;;21.63;20.95
77897;BME280;67092;64.282;21.056;2023-04-16T00:58:37;102801.77;;;21.31;21.16
77897;BME280;67092;64.282;21.056;2023-04-16T01:01:03;102800.67;;;21.46;21.04
77897;BME280;67092;64.282;21.056;2023-04-16T01:03:36;102795.49;;;21.88;20.45
77897;BME280;67092;64.282;21.056;2023-04-16T01:05:55;102795.81;;;20.92;20.99
77897;BME280;67092;64.282;21.056;2023-04-16T01:08:20;102792.89;;;21.31;21.07
77897;BME280;67092;64.282;21.056;2023-04-16T01:10:45;102794.09;;;21.31;21.06
77897;BME280;67092;64.282;21.056;2023-04-16T01:13:11;102793.14;;;21.36;20.96
77897;BME280;67092;64.282;21.056;2023-04-16T01:15:37;102794.69;;;21.00;21.12
77897;BME280;67092;64.282;21.056;2023-04-16T01:18:11;102794.73;;;21.07;21.42
77897;BME280;67092;64.282;21.056;2023-04-16T01:20:28;102794.06;;;20.87;21.41
77897;BME280;67092;64.282;21.056;2023-04-16T01:22:54;102794.98;;;21.03;21.18
77897;BME280;67092;64.282;21.056;2023-04-16T01:25:19;102794.46;;;21.14;21.28
77897;BME280;67092;64.282;21.056;2023-04-16T01:27:48;102792.70;;;21.20;21.24
77897;BME280;67092;64.282;21.056;2023-04-16T01:30:11;102793.90;;;20.60;21.31
77897;BME280;67092;64.282;21.056;2023-04-16T01:32:36;102790.97;;;20.59;21.49
77897;BME280;67092;64.282;21.056;2023-04-16T01:35:02;102786.85;;;20.90;21.41
77897;BME280;67092;64.282;21.056;2023-04-16T01:37:27;102785.35;;;20.77;21.30
77897;BME280;67092;64.282;21.056;2023-04-16T01:39:53;102780.80;;;20.81;21.28
77897;BME280;67092;64.282;21.056;2023-04-16T01:42:18;102779.98;;;21.24;21.06
77897;BME280;67092;64.282;21.056;2023-04-16T01:44:46;102777.36;;;20.93;21.31
77897;BME280;67092;64.282;21.056;2023-04-16T01:47:10;102778.90;;;21.09;20.96
77897;BME280;67092;64.282;21.056;2023-04-16T01:49:35;102773.39;;;20.82;21.17
77897;BME280;67092;64.282;21.056;2023-04-16T01:52:01;102774.18;;;20.54;21.39
77897;BME280;67092;64.282;21.056;2023-04-16T01:54:26;102773.88;;;21.01;20.97
77897;BME280;67092;64.282;21.056;2023-04-16T01:56:52;102777.47;;;21.38;20.69
77897;BME280;67092;64.282;21.056;2023-04-16T01:59:18;102777.11;;;21.15;20.88
77897;BME280;67092;64.282;21.056;2023-04-16T02:01:43;102774.65;;;21.18;20.78
77897;BME280;67092;64.282;21.056;2023-04-16T02:04:09;102774.98;;;21.40;20.82
77897;BME280;67092;64.282;21.056;2023-04-16T02:06:34;102775.26;;;21.62;20.41
77897;BME280;67092;64.282;21.056;2023-04-16T02:09:00;102775.08;;;21.17;20.76
77897;BME280;67092;64.282;21.056;2023-04-16T02:11:26;102770.84;;;21.00;21.04
77897;BME280;67092;64.282;21.056;2023-04-16T02:13:51;102772.70;;;20.97;20.90
77897;BME280;67092;64.282;21.056;2023-04-16T02:16:17;102770.74;;;21.32;20.85
77897;BME280;67092;64.282;21.056;2023-04-16T02:18:43;102769.00;;;20.81;21.03
77897;BME280;67092;64.282;21.056;2023-04-16T02:21:08;102762.20;;;21.09;20.78
77897;BME280;67092;64.282;21.056;2023-04-16T02:23:34;102762.71;;;21.22;20.66
77897;BME280;67092;64.282;21.056;2023-04-16T02:26:01;102755.96;;;21.68;20.46
77897;BME280;67092;64.282;21.056;2023-04-16T02:28:25;102752.75;;;21.38;20.54
77897;BME280;67092;64.282;21.056;2023-04-16T02:30:51;102748.57;;;21.37;20.49
77897;BME280;67092;64.282;21.056;2023-04-16T02:33:16;102749.42;;;20.79;20.98
77897;BME280;67092;64.282;21.056;2023-04-16T02:35:42;102748.88;;;21.10;20.81
77897;BME280;67092;64.282;21.056;2023-04-16T02:38:07;102748.67;;;20.81;20.95
77897;BME280;67092;64.282;21.056;2023-04-16T02:40:33;102750.21;;;20.74;21.02
77897;BME280;67092;64.282;21.056;2023-04-16T02:42:59;102748.71;;;20.94;21.07
77897;BME280;67092;64.282;21.056;2023-04-16T02:45:24;102749.83;;;21.08;20.74
77897;BME280;67092;64.282;21.056;2023-04-16T02:47:50;102747.87;;;20.88;20.91
77897;BME280;67092;64.282;21.056;2023-04-16T02:50:16;102748.67;;;20.85;20.94
77897;BME280;67092;64.282;21.056;2023-04-16T02:52:41;102746.29;;;20.80;20.92
77897;BME280;67092;64.282;21.056;2023-04-16T02:55:08;102743.56;;;21.18;20.80
77897;BME280;67092;64.282;21.056;2023-04-16T02:57:33;102743.90;;;20.79;20.90
77897;BME280;67092;64.282;21.056;2023-04-16T02:59:58;102741.65;;;21.13;20.78
77897;BME280;67092;64.282;21.056;2023-04-16T03:02:24;102741.11;;;21.09;20.90
77897;BME280;67092;64.282;21.056;2023-04-16T03:04:49;102737.73;;;20.97;20.94
77897;BME280;67092;64.282;21.056;2023-04-16T03:07:15;102738.50;;;21.03;20.93
77897;BME280;67092;64.282;21.056;2023-04-16T03:09:41;102738.05;;;20.70;21.17
77897;BME280;67092;64.282;21.056;2023-04-16T03:12:06;102737.33;;;20.74;20.92
77897;BME280;67092;64.282;21.056;2023-04-16T03:14:32;102735.64;;;20.50;21.32
77897;BME280;67092;64.282;21.056;2023-04-16T03:16:58;102730.36;;;21.16;20.93
77897;BME280;67092;64.282;21.056;2023-04-16T03:19:23;102728.77;;;20.45;21.37
77897;BME280;67092;64.282;21.056;2023-04-16T03:21:49;102731.19;;;20.66;21.16
77897;BME280;67092;64.282;21.056;2023-04-16T03:24:15;102733.62;;;20.98;20.91
77897;BME280;67092;64.282;21.056;2023-04-16T03:26:40;102731.83;;;20.41;21.09
77897;BME280;67092;64.282;21.056;2023-04-16T03:29:06;102731.13;;;20.99;20.83
77897;BME280;67092;64.282;21.056;2023-04-16T03:31:31;102729.51;;;20.44;21.06
77897;BME280;67092;64.282;21.056;2023-04-16T03:33:57;102727.91;;;20.94;20.84
77897;BME280;67092;64.282;21.056;2023-04-16T03:36:22;102728.50;;;20.65;21.12
77897;BME280;67092;64.282;21.056;2023-04-16T03:38:48;102727.76;;;20.97;20.84
77897;BME280;67092;64.282;21.056;2023-04-16T03:41:14;102727.86;;;20.72;21.04
77897;BME280;67092;64.282;21.056;2023-04-16T03:43:39;102728.53;;;20.65;21.02
77897;BME280;67092;64.282;21.056;2023-04-16T03:46:05;102725.85;;;20.34;21.16
77897;BME280;67092;64.282;21.056;2023-04-16T03:48:31;102726.21;;;21.38;20.64
77897;BME280;67092;64.282;21.056;2023-04-16T03:50:56;102725.42;;;20.45;21.00
77897;BME280;67092;64.282;21.056;2023-04-16T03:53:22;102723.66;;;20.75;20.94
77897;BME280;67092;64.282;21.056;2023-04-16T03:55:49;102722.42;;;20.48;21.16
77897;BME280;67092;64.282;21.056;2023-04-16T03:58:13;102720.55;;;20.37;21.25
77897;BME280;67092;64.282;21.056;2023-04-16T04:00:40;102723.82;;;20.74;20.92
77897;BME280;67092;64.282;21.056;2023-04-16T04:03:05;102723.98;;;20.77;20.88
77897;BME280;67092;64.282;21.056;2023-04-16T04:05:30;102721.89;;;20.58;20.89
77897;BME280;67092;64.282;21.056;2023-04-16T04:07:56;102718.14;;;20.88;20.80
77897;BME280;67092;64.282;21.056;2023-04-16T04:10:21;102719.42;;;20.33;21.31
77897;BME280;67092;64.282;21.056;2023-04-16T04:12:47;102723.67;;;21.14;20.81
77897;BME280;67092;64.282;21.056;2023-04-16T04:15:12;102723.29;;;20.66;21.18
77897;BME280;67092;64.282;21.056;2023-04-16T04:17:38;102722.62;;;20.27;21.15
77897;BME280;67092;64.282;21.056;2023-04-16T04:20:05;102721.67;;;20.57;21.12
77897;BME280;67092;64.282;21.056;2023-04-16T04:22:29;102721.58;;;20.86;20.89
77897;BME280;67092;64.282;21.056;2023-04-16T04:24:55;102721.40;;;20.49;20.96
77897;BME280;67092;64.282;21.056;2023-04-16T04:27:21;102721.87;;;21.33;20.68
77897;BME280;67092;64.282;21.056;2023-04-16T04:29:46;102723.16;;;20.62;21.00
77897;BME280;67092;64.282;21.056;2023-04-16T04:32:12;102724.99;;;20.48;21.12
77897;BME280;67092;64.282;21.056;2023-04-16T04:34:37;102722.83;;;20.87;20.86
77897;BME280;67092;64.282;21.056;2023-04-16T04:37:03;102720.28;;;20.58;21.04
77897;BME280;67092;64.282;21.056;2023-04-16T04:39:29;102721.93;;;20.88;20.85
77897;BME280;67092;64.282;21.056;2023-04-16T04:41:55;102724.08;;;20.37;21.21
77897;BME280;67092;64.282;21.056;2023-04-16T04:44:20;102721.64;;;20.12;21.47
77897;BME280;67092;64.282;21.056;2023-04-16T04:46:45;102718.59;;;20.31;21.31
77897;BME280;67092;64.282;21.056;2023-04-16T04:49:11;102721.16;;;20.45;21.17
77897;BME280;67092;64.282;21.056;2023-04-16T04:51:37;102720.52;;;20.64;20.84
77897;BME280;67092;64.282;21.056;2023-04-16T04:54:02;102717.19;;;20.29;21.37
77897;BME280;67092;64.282;21.056;2023-04-16T04:56:28;102715.90;;;20.46;21.02
77897;BME280;67092;64.282;21.056;2023-04-16T04:58:54;102717.27;;;21.00;20.90
77897;BME280;67092;64.282;21.056;2023-04-16T05:01:19;102717.80;;;20.38;21.29
77897;BME280;67092;64.282;21.056;2023-04-16T05:03:45;102719.59;;;20.56;21.13
77897;BME280;67092;64.282;21.056;2023-04-16T05:06:10;102724.36;;;20.71;21.02
77897;BME280;67092;64.282;21.056;2023-04-16T05:08:36;102722.00;;;20.64;21.21
77897;BME280;67092;64.282;21.056;2023-04-16T05:11:02;102724.16;;;21.03;20.69
77897;BME280;67092;64.282;21.056;2023-04-16T05:13:27;102724.40;;;20.36;21.03
77897;BME280;67092;64.282;21.056;2023-04-16T05:15:53;102724.65;;;20.67;21.20
77897;BME280;67092;64.282;21.056;2023-04-16T05:18:19;102720.92;;;20.32;21.28
77897;BME280;67092;64.282;21.056;2023-04-16T05:20:44;102720.37;;;20.63;20.87
77897;BME280;67092;64.282;21.056;2023-04-16T05:23:10;102718.34;;;21.13;20.72
77897;BME280;67092;64.282;21.056;2023-04-16T05:25:35;102717.41;;;21.02;20.91
77897;BME280;67092;64.282;21.056;2023-04-16T05:28:01;102715.97;;;21.16;20.62
77897;BME280;67092;64.282;21.056;2023-04-16T05:30:27;102708.88;;;20.28;21.30
77897;BME280;67092;64.282;21.056;2023-04-16T05:32:52;102705.40;;;20.72;21.22
77897;BME280;67092;64.282;21.056;2023-04-16T05:35:18;102705.30;;;20.47;20.93
77897;BME280;67092;64.282;21.056;2023-04-16T05:37:43;102703.55;;;20.29;21.21
77897;BME280;67092;64.282;21.056;2023-04-16T05:40:12;102704.36;;;20.62;21.08
77897;BME280;67092;64.282;21.056;2023-04-16T05:42:35;102702.90;;;20.98;20.96
77897;BME280;67092;64.282;21.056;2023-04-16T05:45:02;102700.68;;;20.31;21.19
77897;BME280;67092;64.282;21.056;2023-04-16T05:47:26;102701.80;;;20.69;20.94
77897;BME280;67092;64.282;21.056;2023-04-16T05:49:52;102702.49;;;20.85;20.83
77897;BME280;67092;64.282;21.056;2023-04-16T05:52:17;102705.09;;;20.49;21.13
77897;BME280;67092;64.282;21.056;2023-04-16T05:54:43;102700.06;;;21.08;20.88
77897;BME280;67092;64.282;21.056;2023-04-16T05:57:08;102693.63;;;20.64;21.21
77897;BME280;67092;64.282;21.056;2023-04-16T05:59:34;102694.82;;;20.81;20.80
77897;BME280;67092;64.282;21.056;2023-04-16T06:02:00;102692.04;;;20.55;20.89
77897;BME280;67092;64.282;21.056;2023-04-16T06:04:25;102694.90;;;20.71;21.12
77897;BME280;67092;64.282;21.056;2023-04-16T06:06:51;102694.56;;;20.47;21.20
77897;BME280;67092;64.282;21.056;2023-04-16T06:09:17;102693.41;;;20.33;21.25
77897;BME280;67092;64.282;21.056;2023-04-16T06:11:43;102692.94;;;20.26;21.51
77897;BME280;67092;64.282;21.056;2023-04-16T06:14:08;102692.03;;;20.55;21.29
77897;BME280;67092;64.282;21.056;2023-04-16T06:16:34;102692.70;;;20.85;21.12
77897;BME280;67092;64.282;21.056;2023-04-16T06:18:59;102692.45;;;20.25;21.13
77897;BME280;67092;64.282;21.056;2023-04-16T06:21:25;102692.88;;;20.38;21.20
77897;BME280;67092;64.282;21.056;2023-04-16T06:23:50;102692.44;;;20.56;21.04
77897;BME280;67092;64.282;21.056;2023-04-16T06:26:16;102691.38;;;20.36;21.23
77897;BME280;67092;64.282;21.056;2023-04-16T06:28:42;102689.66;;;20.33;21.40
77897;BME280;67092;64.282;21.056;2023-04-16T06:31:07;102688.98;;;20.09;21.39
77897;BME280;67092;64.282;21.056;2023-04-16T06:33:33;102689.24;;;20.34;21.16
77897;BME280;67092;64.282;21.056;2023-04-16T06:35:58;102690.67;;;20.35;21.20
77897;BME280;67092;64.282;21.056;2023-04-16T06:38:24;102691.51;;;20.45;21.32
77897;BME280;67092;64.282;21.056;2023-04-16T06:40:50;102693.49;;;21.01;20.79
77897;BME280;67092;64.282;21.056;2023-04-16T06:43:15;102696.80;;;20.67;21.07
77897;BME280;67092;64.282;21.056;2023-04-16T06:45:46;102698.69;;;20.19;21.45
77897;BME280;67092;64.282;21.056;2023-04-16T06:48:07;102696.17;;;20.10;21.10
77897;BME280;67092;64.282;21.056;2023-04-16T06:50:32;102695.98;;;20.55;21.11
77897;BME280;67092;64.282;21.056;2023-04-16T06:52:58;102695.15;;;20.57;20.97
77897;BME280;67092;64.282;21.056;2023-04-16T06:55:23;102695.54;;;20.58;21.01
77897;BME280;67092;64.282;21.056;2023-04-16T06:57:49;102692.38;;;20.58;21.00
77897;BME280;67092;64.282;21.056;2023-04-16T07:00:15;102691.98;;;20.40;21.18
77897;BME280;67092;64.282;21.056;2023-04-16T07:02:40;102688.40;;;20.91;21.12
77897;BME280;67092;64.282;21.056;2023-04-16T07:05:40;102683.34;;;20.28;21.44
77897;BME280;67092;64.282;21.056;2023-04-16T07:07:32;102684.16;;;20.02;21.66
77897;BME280;67092;64.282;21.056;2023-04-16T07:09:58;102682.61;;;20.42;21.26
77897;BME280;67092;64.282;21.056;2023-04-16T07:12:23;102678.49;;;20.26;21.30
77897;BME280;67092;64.282;21.056;2023-04-16T07:14:49;102675.68;;;20.47;21.33
77897;BME280;67092;64.282;21.056;2023-04-16T07:17:14;102672.82;;;20.69;20.91
77897;BME280;67092;64.282;21.056;2023-04-16T07:19:40;102670.17;;;20.17;21.14
77897;BME280;67092;64.282;21.056;2023-04-16T07:22:05;102667.27;;;20.40;21.12
77897;BME280;67092;64.282;21.056;2023-04-16T07:24:31;102671.12;;;20.58;20.91
77897;BME280;67092;64.282;21.056;2023-04-16T07:26:56;102672.40;;;20.93;20.78
77897;BME280;67092;64.282;21.056;2023-04-16T07:29:22;102668.22;;;21.01;20.54
77897;BME280;67092;64.282;21.056;2023-04-16T07:31:48;102667.59;;;21.22;20.35
77897;BME280;67092;64.282;21.056;2023-04-16T07:34:13;102670.17;;;21.09;20.37
77897;BME280;67092;64.282;21.056;2023-04-16T07:36:44;102670.80;;;21.09;20.41
77897;BME280;67092;64.282;21.056;2023-04-16T07:39:05;102669.23;;;21.07;20.26
77897;BME280;67092;64.282;21.056;2023-04-16T07:41:30;102669.54;;;20.85;20.43
77897;BME280;67092;64.282;21.056;2023-04-16T07:43:56;102667.42;;;21.03;20.23
77897;BME280;67092;64.282;21.056;2023-04-16T07:46:26;102667.73;;;21.04;20.16
77897;BME280;67092;64.282;21.056;2023-04-16T07:48:47;102669.98;;;21.62;20.13
77897;BME280;67092;64.282;21.056;2023-04-16T07:51:13;102668.30;;;21.01;20.16
77897;BME280;67092;64.282;21.056;2023-04-16T07:53:38;102672.96;;;20.52;20.36
77897;BME280;67092;64.282;21.056;2023-04-16T07:56:04;102669.32;;;21.24;19.95
77897;BME280;67092;64.282;21.056;2023-04-16T07:58:30;102669.86;;;21.09;20.03
77897;BME280;67092;64.282;21.056;2023-04-16T08:00:56;102665.07;;;20.71;20.21
77897;BME280;67092;64.282;21.056;2023-04-16T08:03:21;102667.29;;;21.17;20.01
77897;BME280;67092;64.282;21.056;2023-04-16T08:05:47;102666.64;;;21.36;19.91
77897;BME280;67092;64.282;21.056;2023-04-16T08:08:12;102667.15;;;21.39;19.95
77897;BME280;67092;64.282;21.056;2023-04-16T08:10:38;102663.57;;;21.17;20.12
77897;BME280;67092;64.282;21.056;2023-04-16T08:13:03;102667.95;;;20.67;20.33
77897;BME280;67092;64.282;21.056;2023-04-16T08:15:34;102667.26;;;21.27;19.93
77897;BME280;67092;64.282;21.056;2023-04-16T08:17:54;102666.14;;;20.96;20.13
77897;BME280;67092;64.282;21.056;2023-04-16T08:20:20;102665.70;;;21.69;19.58
77897;BME280;67092;64.282;21.056;2023-04-16T08:22:47;102662.67;;;21.12;19.94
77897;BME280;67092;64.282;21.056;2023-04-16T08:25:11;102663.29;;;21.35;19.81
77897;BME280;67092;64.282;21.056;2023-04-16T08:27:37;102664.57;;;21.43;19.94
77897;BME280;67092;64.282;21.056;2023-04-16T08:30:03;102664.90;;;21.22;19.87
77897;BME280;67092;64.282;21.056;2023-04-16T08:32:28;102665.29;;;20.98;19.99
77897;BME280;67092;64.282;21.056;2023-04-16T08:34:54;102668.20;;;21.21;19.87
77897;BME280;67092;64.282;21.056;2023-04-16T08:37:19;102666.74;;;21.40;19.65
77897;BME280;67092;64.282;21.056;2023-04-16T08:39:45;102667.54;;;21.25;19.79
77897;BME280;67092;64.282;21.056;2023-04-16T08:42:17;102661.71;;;21.42;19.61
77897;BME280;67092;64.282;21.056;2023-04-16T08:44:37;102662.53;;;20.47;20.14
77897;BME280;67092;64.282;21.056;2023-04-16T08:47:02;102661.04;;;21.33;19.69
77897;BME280;67092;64.282;21.056;2023-04-16T08:49:27;102661.58;;;21.18;19.78
77897;BME280;67092;64.282;21.056;2023-04-16T08:51:55;102660.69;;;21.33;19.58
77897;BME280;67092;64.282;21.056;2023-04-16T08:54:30;102659.94;;;21.02;19.69
77897;BME280;67092;64.282;21.056;2023-04-16T08:56:44;102662.99;;;21.45;19.76
77897;BME280;67092;64.282;21.056;2023-04-16T08:59:10;102664.99;;;20.70;20.08
77897;BME280;67092;64.282;21.056;2023-04-16T09:01:36;102662.74;;;21.29;19.64
77897;BME280;67092;64.282;21.056;2023-04-16T09:04:01;102661.48;;;21.33;19.58
77897;BME280;67092;64.282;21.056;2023-04-16T09:06:27;102659.20;;;21.45;19.52
77897;BME280;67092;64.282;21.056;2023-04-16T09:08:53;102657.73;;;20.60;19.98
77897;BME280;67092;64.282;21.056;2023-04-16T09:11:19;102658.61;;;21.46;19.69
77897;BME280;67092;64.282;21.056;2023-04-16T09:13:44;102660.02;;;21.13;19.75
77897;BME280;67092;64.282;21.056;2023-04-16T09:16:10;102657.13;;;20.83;19.82
77897;BME280;67092;64.282;21.056;2023-04-16T09:18:35;102652.39;;;21.00;19.86
77897;BME280;67092;64.282;21.056;2023-04-16T09:21:00;102652.68;;;21.17;19.71
77897;BME280;67092;64.282;21.056;2023-04-16T09:23:26;102650.60;;;21.43;19.53
77897;BME280;67092;64.282;21.056;2023-04-16T09:25:52;102650.72;;;20.54;20.33
77897;BME280;67092;64.282;21.056;2023-04-16T09:30:43;102647.75;;;20.78;19.92
77897;BME280;67092;64.282;21.056;2023-04-16T09:33:13;102648.20;;;21.15;19.85
77897;BME280;67092;64.282;21.056;2023-04-16T09:35:43;102649.16;;;21.02;19.78
77897;BME280;67092;64.282;21.056;2023-04-16T09:38:00;102649.17;;;21.20;19.42
77897;BME280;67092;64.282;21.056;2023-04-16T09:40:26;102645.54;;;21.59;19.24
77897;BME280;67092;64.282;21.056;2023-04-16T09:42:51;102648.98;;;21.40;19.13
77897;BME280;67092;64.282;21.056;2023-04-16T09:45:16;102646.90;;;20.96;18.93
77897;BME280;67092;64.282;21.056;2023-04-16T09:47:43;102647.14;;;21.58;18.50
77897;BME280;67092;64.282;21.056;2023-04-16T09:50:09;102644.69;;;21.25;18.09
77897;BME280;67092;64.282;21.056;2023-04-16T09:52:36;102643.87;;;20.85;18.26
77897;BME280;67092;64.282;21.056;2023-04-16T09:54:59;102643.00;;;21.24;17.94
77897;BME280;67092;64.282;21.056;2023-04-16T09:57:24;102645.41;;;21.27;18.08
77897;BME280;67092;64.282;21.056;2023-04-16T09:59:52;102644.56;;;21.15;18.15
77897;BME280;67092;64.282;21.056;2023-04-16T10:02:16;102645.44;;;21.50;17.87
77897;BME280;67092;64.282;21.056;2023-04-16T10:04:47;102642.84;;;21.03;18.19
77897;BME280;67092;64.282;21.056;2023-04-16T10:07:07;102640.95;;;21.11;18.10
77897;BME280;67092;64.282;21.056;2023-04-16T10:09:36;102638.54;;;21.12;18.10
77897;BME280;67092;64.282;21.056;2023-04-16T10:11:58;102636.96;;;20.96;18.03
77897;BME280;67092;64.282;21.056;2023-04-16T10:14:23;102638.77;;;20.63;18.21
77897;BME280;67092;64.282;21.056;2023-04-16T10:16:49;102637.42;;;20.71;18.19
77897;BME280;67092;64.282;21.056;2023-04-16T10:19:15;102639.01;;;21.30;17.75
77897;BME280;67092;64.282;21.056;2023-04-16T10:21:40;102635.51;;;21.35;17.87
77897;BME280;67092;64.282;21.056;2023-04-16T10:24:06;102631.70;;;21.23;17.95
77897;BME280;67092;64.282;21.056;2023-04-16T10:26:31;102633.31;;;21.05;18.05
77897;BME280;67092;64.282;21.056;2023-04-16T10:28:57;102634.79;;;21.25;17.75
77897;BME280;67092;64.282;21.056;2023-04-16T10:31:22;102635.36;;;20.83;18.01
77897;BME280;67092;64.282;21.056;2023-04-16T10:33:48;102635.38;;;21.44;17.70
77897;BME280;67092;64.282;21.056;2023-04-16T10:36:14;102634.71;;;21.09;17.75
77897;BME280;67092;64.282;21.056;2023-04-16T10:38:40;102633.18;;;21.38;17.74
77897;BME280;67092;64.282;21.056;2023-04-16T10:41:05;102631.73;;;21.06;17.59
77897;BME280;67092;64.282;21.056;2023-04-16T10:43:31;102632.19;;;21.05;17.61
77897;BME280;67092;64.282;21.056;2023-04-16T10:45:56;102634.52;;;20.76;17.90
77897;BME280;67092;64.282;21.056;2023-04-16T10:48:23;102630.12;;;20.49;17.70
77897;BME280;67092;64.282;21.056;2023-04-16T10:50:53;102630.20;;;21.10;17.37
77897;BME280;67092;64.282;21.056;2023-04-16T10:53:18;102628.41;;;21.01;17.41
77897;BME280;67092;64.282;21.056;2023-04-16T10:55:38;102634.20;;;20.94;17.46
77897;BME280;67092;64.282;21.056;2023-04-16T11:00:29;102633.62;;;21.28;17.28
77897;BME280;67092;64.282;21.056;2023-04-16T11:02:54;102634.15;;;21.50;17.29
77897;BME280;67092;64.282;21.056;2023-04-16T11:05:21;102634.87;;;21.15;17.38
77897;BME280;67092;64.282;21.056;2023-04-16T11:07:47;102633.52;;;21.14;17.60
77897;BME280;67092;64.282;21.056;2023-04-16T11:10:12;102637.92;;;20.84;17.65
77897;BME280;67092;64.282;21.056;2023-04-16T11:12:38;102635.25;;;21.04;17.67
77897;BME280;67092;64.282;21.056;2023-04-16T11:15:04;102635.79;;;21.14;17.46
77897;BME280;67092;64.282;21.056;2023-04-16T11:17:30;102634.67;;;21.05;17.50
77897;BME280;67092;64.282;21.056;2023-04-16T11:19:53;102630.60;;;20.96;17.59
77897;BME280;67092;64.282;21.056;2023-04-16T11:22:19;102631.64;;;21.35;17.30
77897;BME280;67092;64.282;21.056;2023-04-16T11:24:45;102630.85;;;21.48;17.41
77897;BME280;67092;64.282;21.056;2023-04-16T11:27:12;102630.63;;;21.52;17.36
77897;BME280;67092;64.282;21.056;2023-04-16T11:29:35;102627.63;;;21.60;17.31
77897;BME280;67092;64.282;21.056;2023-04-16T11:32:01;102628.54;;;21.19;17.45
77897;BME280;67092;64.282;21.056;2023-04-16T11:34:26;102629.02;;;21.13;17.50
77897;BME280;67092;64.282;21.056;2023-04-16T11:36:52;102626.75;;;21.19;17.49
77897;BME280;67092;64.282;21.056;2023-04-16T11:39:18;102626.93;;;21.10;17.54
77897;BME280;67092;64.282;21.056;2023-04-16T11:41:43;102627.88;;;20.96;17.69
77897;BME280;67092;64.282;21.056;2023-04-16T11:44:19;102626.48;;;21.29;17.77
77897;BME280;67092;64.282;21.056;2023-04-16T11:46:38;102626.71;;;21.27;17.46
77897;BME280;67092;64.282;21.056;2023-04-16T11:49:00;102625.76;;;21.22;17.50
77897;BME280;67092;64.282;21.056;2023-04-16T11:51:25;102627.38;;;20.72;18.00
77897;BME280;67092;64.282;21.056;2023-04-16T11:53:52;102622.79;;;21.04;17.64
77897;BME280;67092;64.282;21.056;2023-04-16T11:56:25;102623.75;;;20.91;17.56
77897;BME280;67092;64.282;21.056;2023-04-16T11:58:42;102621.42;;;20.68;17.88
77897;BME280;67092;64.282;21.056;2023-04-16T12:01:08;102624.98;;;20.88;17.75
77897;BME280;67092;64.282;21.056;2023-04-16T12:03:39;102623.04;;;21.36;17.63
77897;BME280;67092;64.282;21.056;2023-04-16T12:06:06;102623.45;;;20.87;17.79
77897;BME280;67092;64.282;21.056;2023-04-16T12:08:28;102626.32;;;21.53;17.36
77897;BME280;67092;64.282;21.056;2023-04-16T12:10:53;102622.74;;;21.11;17.62
77897;BME280;67092;64.282;21.056;2023-04-16T12:13:15;102622.79;;;21.08;17.66
77897;BME280;67092;64.282;21.056;2023-04-16T12:15:44;102620.91;;;21.00;17.71
77897;BME280;67092;64.282;21.056;2023-04-16T12:18:07;102620.60;;;21.16;17.60
77897;BME280;67092;64.282;21.056;2023-04-16T12:20:38;102620.30;;;20.75;17.86
77897;BME280;67092;64.282;21.056;2023-04-16T12:22:56;102620.62;;;21.11;17.82
77897;BME280;67092;64.282;21.056;2023-04-16T12:25:23;102617.64;;;21.46;17.63
77897;BME280;67092;64.282;21.056;2023-04-16T12:27:48;102616.94;;;21.49;17.54
77897;BME280;67092;64.282;21.056;2023-04-16T12:30:14;102615.48;;;21.65;17.56
77897;BME280;67092;64.282;21.056;2023-04-16T12:32:40;102614.53;;;21.24;17.55
77897;BME280;67092;64.282;21.056;2023-04-16T12:35:05;102616.53;;;20.94;17.55